sensor_id;sensor_type;location;lat;lon;timestamp;temperature;humidity
36790;DHT22;22740;52.182;8.780;2023-06-24T00:04:55;16.60;99.90
36790;DHT22;22740;52.182;8.780;2023-06-24T00:11:03;16.40;99.90
36790;DHT22;22740;52.182;8.780;2023-06-24T00:17:05;16.40;99.90
36790;DHT22;22740;52.182;8.780;2023-06-24T00:23:08;16.30;99.90
36790;DHT22;22740;52.182;8.780;2023-06-24T00:29:10;16.20;99.90
36790;DHT22;22740;52.182;8.780;2023-06-24T00:35:12;16.20;99.90
36790;DHT22;22740;52.182;8.780;2023-06-24T00:41:16;16.20;99.90
36790;DHT22;22740;52.182;8.780;2023-06-24T00:47:20;16.10;99.90
36790;DHT22;22740;52.182;8.780;2023-06-24T00:53:22;16.20;99.90
36790;DHT22;22740;52.182;8.780;2023-06-24T00:59:26;16.20;99.90
36790;DHT22;22740;52.182;8.780;2023-06-24T01:05:31;16.20;99.90
36790;DHT22;22740;52.182;8.780;2023-06-24T01:11:38;16.20;99.90
36790;DHT22;22740;52.182;8.780;2023-06-24T01:17:50;15.90;99.90
36790;DHT22;22740;52.182;8.780;2023-06-24T01:24:54;15.80;99.90
36790;DHT22;22740;52.182;8.780;2023-06-24T01:37:14;15.60;99.90
36790;DHT22;22740;52.182;8.780;2023-06-24T01:43:19;15.60;99.90
36790;DHT22;22740;52.182;8.780;2023-06-24T01:49:24;15.70;99.90
36790;DHT22;22740;52.182;8.780;2023-06-24T01:55:29;15.80;99.90
36790;DHT22;22740;52.182;8.780;2023-06-24T02:01:35;15.80;99.90
36790;DHT22;22740;52.182;8.780;2023-06-24T02:07:40;15.70;99.90
36790;DHT22;22740;52.182;8.780;2023-06-24T02:13:43;15.50;99.90
36790;DHT22;22740;52.182;8.780;2023-06-24T02:19:47;15.30;99.90
36790;DHT22;22740;52.182;8.780;2023-06-24T02:25:50;15.40;99.90
36790;DHT22;22740;52.182;8.780;2023-06-24T02:31:53;15.30;99.90
36790;DHT22;22740;52.182;8.780;2023-06-24T02:37:55;15.40;99.90
36790;DHT22;22740;52.182;8.780;2023-06-24T02:43:57;15.40;99.90
36790;DHT22;22740;52.182;8.780;2023-06-24T02:49:59;15.20;99.90
36790;DHT22;22740;52.182;8.780;2023-06-24T02:56:02;15.10;99.90
36790;DHT22;22740;52.182;8.780;2023-06-24T03:02:05;15.00;99.90
36790;DHT22;22740;52.182;8.780;2023-06-24T03:08:10;14.80;99.90
36790;DHT22;22740;52.182;8.780;2023-06-24T03:14:13;14.60;99.90
36790;DHT22;22740;52.182;8.780;2023-06-24T03:20:16;14.50;99.90
36790;DHT22;22740;52.182;8.780;2023-06-24T03:26:18;14.30;99.90
36790;DHT22;22740;52.182;8.780;2023-06-24T03:32:20;14.40;99.90
36790;DHT22;22740;52.182;8.780;2023-06-24T03:38:22;14.50;99.90
36790;DHT22;22740;52.182;8.780;2023-06-24T03:44:24;14.50;99.90
36790;DHT22;22740;52.182;8.780;2023-06-24T03:50:26;14.60;99.90
36790;DHT22;22740;52.182;8.780;2023-06-24T03:56:29;14.80;99.90
36790;DHT22;22740;52.182;8.780;2023-06-24T04:02:31;14.80;99.90
36790;DHT22;22740;52.182;8.780;2023-06-24T04:08:33;15.00;99.90
36790;DHT22;22740;52.182;8.780;2023-06-24T04:14:35;15.20;99.90
36790;DHT22;22740;52.182;8.780;2023-06-24T04:20:36;15.50;99.90
36790;DHT22;22740;52.182;8.780;2023-06-24T04:26:39;16.10;99.90
36790;DHT22;22740;52.182;8.780;2023-06-24T04:32:41;16.50;99.90
36790;DHT22;22740;52.182;8.780;2023-06-24T04:38:43;16.70;99.90
36790;DHT22;22740;52.182;8.780;2023-06-24T04:44:45;17.10;99.90
36790;DHT22;22740;52.182;8.780;2023-06-24T04:50:48;17.30;99.90
36790;DHT22;22740;52.182;8.780;2023-06-24T04:56:50;17.30;99.90
36790;DHT22;22740;52.182;8.780;2023-06-24T05:02:53;17.00;99.90
36790;DHT22;22740;52.182;8.780;2023-06-24T05:08:59;16.90;99.90
36790;DHT22;22740;52.182;8.780;2023-06-24T05:15:00;16.90;99.90
36790;DHT22;22740;52.182;8.780;2023-06-24T05:21:03;16.80;99.90
36790;DHT22;22740;52.182;8.780;2023-06-24T05:27:06;16.70;99.90
36790;DHT22;22740;52.182;8.780;2023-06-24T05:33:08;16.70;99.90
36790;DHT22;22740;52.182;8.780;2023-06-24T05:39:11;16.80;99.90
36790;DHT22;22740;52.182;8.780;2023-06-24T05:45:14;16.70;99.90
36790;DHT22;22740;52.182;8.780;2023-06-24T05:51:17;16.90;99.90
36790;DHT22;22740;52.182;8.780;2023-06-24T05:57:18;17.10;99.90
36790;DHT22;22740;52.182;8.780;2023-06-24T06:03:20;17.30;99.90
36790;DHT22;22740;52.182;8.780;2023-06-24T06:09:22;17.40;99.90
36790;DHT22;22740;52.182;8.780;2023-06-24T06:15:24;17.30;99.90
36790;DHT22;22740;52.182;8.780;2023-06-24T06:21:26;17.50;99.90
36790;DHT22;22740;52.182;8.780;2023-06-24T06:27:28;17.70;99.90
36790;DHT22;22740;52.182;8.780;2023-06-24T06:33:30;18.00;99.90
36790;DHT22;22740;52.182;8.780;2023-06-24T06:39:32;18.70;99.90
36790;DHT22;22740;52.182;8.780;2023-06-24T06:45:34;19.00;99.90
36790;DHT22;22740;52.182;8.780;2023-06-24T06:51:36;19.10;99.90
36790;DHT22;22740;52.182;8.780;2023-06-24T06:57:38;19.10;99.90
36790;DHT22;22740;52.182;8.780;2023-06-24T07:03:40;19.10;99.90
36790;DHT22;22740;52.182;8.780;2023-06-24T07:09:42;19.00;99.90
36790;DHT22;22740;52.182;8.780;2023-06-24T07:15:44;19.30;99.90
36790;DHT22;22740;52.182;8.780;2023-06-24T07:21:46;19.70;99.90
36790;DHT22;22740;52.182;8.780;2023-06-24T07:27:48;19.40;99.90
36790;DHT22;22740;52.182;8.780;2023-06-24T07:33:50;19.60;99.90
36790;DHT22;22740;52.182;8.780;2023-06-24T07:39:52;19.50;99.90
36790;DHT22;22740;52.182;8.780;2023-06-24T07:45:54;20.30;99.90
36790;DHT22;22740;52.182;8.780;2023-06-24T07:51:56;19.80;99.90
36790;DHT22;22740;52.182;8.780;2023-06-24T07:57:58;19.70;99.90
36790;DHT22;22740;52.182;8.780;2023-06-24T08:04:00;20.20;99.90
36790;DHT22;22740;52.182;8.780;2023-06-24T08:10:02;20.00;99.90
36790;DHT22;22740;52.182;8.780;2023-06-24T08:16:04;20.10;99.90
36790;DHT22;22740;52.182;8.780;2023-06-24T08:22:06;20.30;99.90
36790;DHT22;22740;52.182;8.780;2023-06-24T08:28:10;20.40;99.90
36790;DHT22;22740;52.182;8.780;2023-06-24T08:34:12;20.40;99.90
36790;DHT22;22740;52.182;8.780;2023-06-24T08:40:14;20.80;99.90
36790;DHT22;22740;52.182;8.780;2023-06-24T08:46:16;20.60;99.90
36790;DHT22;22740;52.182;8.780;2023-06-24T08:52:20;20.70;99.90
36790;DHT22;22740;52.182;8.780;2023-06-24T08:58:22;21.20;99.90
36790;DHT22;22740;52.182;8.780;2023-06-24T09:04:24;21.70;99.90
36790;DHT22;22740;52.182;8.780;2023-06-24T09:10:34;21.70;99.90
36790;DHT22;22740;52.182;8.780;2023-06-24T09:16:36;21.90;99.90
36790;DHT22;22740;52.182;8.780;2023-06-24T09:22:40;22.10;99.90
36790;DHT22;22740;52.182;8.780;2023-06-24T09:28:48;22.20;99.90
36790;DHT22;22740;52.182;8.780;2023-06-24T09:34:51;22.50;99.90
36790;DHT22;22740;52.182;8.780;2023-06-24T09:41:02;22.90;99.90
36790;DHT22;22740;52.182;8.780;2023-06-24T09:47:14;23.00;99.90
36790;DHT22;22740;52.182;8.780;2023-06-24T09:53:17;23.40;99.90
36790;DHT22;22740;52.182;8.780;2023-06-24T09:59:20;23.70;99.90
36790;DHT22;22740;52.182;8.780;2023-06-24T10:05:23;23.80;99.90
36790;DHT22;22740;52.182;8.780;2023-06-24T10:11:25;24.10;99.90
36790;DHT22;22740;52.182;8.780;2023-06-24T10:17:27;24.10;99.90
36790;DHT22;22740;52.182;8.780;2023-06-24T10:23:52;24.20;99.90
36790;DHT22;22740;52.182;8.780;2023-06-24T10:30:02;24.70;99.90
36790;DHT22;22740;52.182;8.780;2023-06-24T10:36:31;25.20;99.90
36790;DHT22;22740;52.182;8.780;2023-06-24T10:42:36;25.70;99.90
36790;DHT22;22740;52.182;8.780;2023-06-24T10:48:41;26.00;99.90
36790;DHT22;22740;52.182;8.780;2023-06-24T10:54:43;25.30;99.90
36790;DHT22;22740;52.182;8.780;2023-06-24T11:00:45;25.00;99.90
36790;DHT22;22740;52.182;8.780;2023-06-24T11:07:01;24.90;99.90
36790;DHT22;22740;52.182;8.780;2023-06-24T11:13:07;24.50;99.90
36790;DHT22;22740;52.182;8.780;2023-06-24T11:19:09;23.90;99.90
36790;DHT22;22740;52.182;8.780;2023-06-24T11:25:21;24.50;99.90
36790;DHT22;22740;52.182;8.780;2023-06-24T11:31:26;25.00;99.90
36790;DHT22;22740;52.182;8.780;2023-06-24T11:37:31;25.50;99.90
36790;DHT22;22740;52.182;8.780;2023-06-24T11:43:36;26.10;99.90
36790;DHT22;22740;52.182;8.780;2023-06-24T11:49:49;26.40;99.90
36790;DHT22;22740;52.182;8.780;2023-06-24T11:55:52;26.50;99.90
36790;DHT22;22740;52.182;8.780;2023-06-24T12:01:59;26.40;99.90
36790;DHT22;22740;52.182;8.780;2023-06-24T12:08:06;26.30;99.90
36790;DHT22;22740;52.182;8.780;2023-06-24T12:14:09;26.40;99.90
36790;DHT22;22740;52.182;8.780;2023-06-24T12:20:11;26.50;99.90
36790;DHT22;22740;52.182;8.780;2023-06-24T12:26:15;26.80;99.90
36790;DHT22;22740;52.182;8.780;2023-06-24T12:32:17;26.20;99.90
36790;DHT22;22740;52.182;8.780;2023-06-24T12:38:19;25.90;99.90
36790;DHT22;22740;52.182;8.780;2023-06-24T12:44:21;25.90;99.90
36790;DHT22;22740;52.182;8.780;2023-06-24T12:50:23;26.10;99.90
36790;DHT22;22740;52.182;8.780;2023-06-24T12:56:25;26.10;99.90
36790;DHT22;22740;52.182;8.780;2023-06-24T13:02:27;25.60;99.90
36790;DHT22;22740;52.182;8.780;2023-06-24T13:08:29;25.70;99.90
36790;DHT22;22740;52.182;8.780;2023-06-24T13:14:31;25.20;99.90
36790;DHT22;22740;52.182;8.780;2023-06-24T13:20:33;25.10;99.90
36790;DHT22;22740;52.182;8.780;2023-06-24T13:26:36;25.30;99.90
36790;DHT22;22740;52.182;8.780;2023-06-24T13:32:38;25.50;99.90
36790;DHT22;22740;52.182;8.780;2023-06-24T13:38:39;26.00;99.90
36790;DHT22;22740;52.182;8.780;2023-06-24T13:44:41;26.30;99.90
36790;DHT22;22740;52.182;8.780;2023-06-24T13:50:43;25.80;99.90
36790;DHT22;22740;52.182;8.780;2023-06-24T13:56:45;25.50;99.90
36790;DHT22;22740;52.182;8.780;2023-06-24T14:02:47;25.30;99.90
36790;DHT22;22740;52.182;8.780;2023-06-24T14:08:51;25.10;99.90
36790;DHT22;22740;52.182;8.780;2023-06-24T14:14:53;25.10;99.90
36790;DHT22;22740;52.182;8.780;2023-06-24T14:20:55;25.40;99.90
36790;DHT22;22740;52.182;8.780;2023-06-24T14:26:57;25.40;99.90
36790;DHT22;22740;52.182;8.780;2023-06-24T14:32:59;25.40;99.90
36790;DHT22;22740;52.182;8.780;2023-06-24T14:39:01;25.50;99.90
36790;DHT22;22740;52.182;8.780;2023-06-24T14:45:03;25.70;99.90
36790;DHT22;22740;52.182;8.780;2023-06-24T14:51:05;25.80;99.90
36790;DHT22;22740;52.182;8.780;2023-06-24T14:57:07;26.00;99.90
36790;DHT22;22740;52.182;8.780;2023-06-24T15:03:09;26.00;99.90
36790;DHT22;22740;52.182;8.780;2023-06-24T15:09:11;26.20;99.90
36790;DHT22;22740;52.182;8.780;2023-06-24T15:15:14;26.30;99.90
36790;DHT22;22740;52.182;8.780;2023-06-24T15:21:16;26.10;99.90
36790;DHT22;22740;52.182;8.780;2023-06-24T15:27:36;25.90;99.90
36790;DHT22;22740;52.182;8.780;2023-06-24T15:33:38;26.20;99.90
36790;DHT22;22740;52.182;8.780;2023-06-24T15:39:40;25.80;99.90
36790;DHT22;22740;52.182;8.780;2023-06-24T15:45:42;25.70;99.90
36790;DHT22;22740;52.182;8.780;2023-06-24T15:51:44;25.70;99.90
36790;DHT22;22740;52.182;8.780;2023-06-24T15:57:46;25.90;99.90
36790;DHT22;22740;52.182;8.780;2023-06-24T16:03:48;26.10;99.90
36790;DHT22;22740;52.182;8.780;2023-06-24T16:09:50;25.90;99.90
36790;DHT22;22740;52.182;8.780;2023-06-24T16:15:52;25.70;99.90
36790;DHT22;22740;52.182;8.780;2023-06-24T16:21:54;25.80;99.90
36790;DHT22;22740;52.182;8.780;2023-06-24T16:27:56;25.80;99.90
36790;DHT22;22740;52.182;8.780;2023-06-24T16:33:58;25.60;99.90
36790;DHT22;22740;52.182;8.780;2023-06-24T16:40:00;25.50;99.90
36790;DHT22;22740;52.182;8.780;2023-06-24T16:46:02;25.40;99.90
36790;DHT22;22740;52.182;8.780;2023-06-24T16:52:04;25.60;99.90
36790;DHT22;22740;52.182;8.780;2023-06-24T16:58:06;25.80;99.90
36790;DHT22;22740;52.182;8.780;2023-06-24T17:04:08;26.20;99.90
36790;DHT22;22740;52.182;8.780;2023-06-24T17:10:10;26.10;99.90
36790;DHT22;22740;52.182;8.780;2023-06-24T17:16:12;26.20;99.90
36790;DHT22;22740;52.182;8.780;2023-06-24T17:22:14;26.40;99.90
36790;DHT22;22740;52.182;8.780;2023-06-24T17:28:15;26.00;99.90
36790;DHT22;22740;52.182;8.780;2023-06-24T17:34:17;25.50;99.90
36790;DHT22;22740;52.182;8.780;2023-06-24T17:40:20;25.30;99.90
36790;DHT22;22740;52.182;8.780;2023-06-24T17:46:22;25.30;99.90
36790;DHT22;22740;52.182;8.780;2023-06-24T17:52:24;25.00;99.90
36790;DHT22;22740;52.182;8.780;2023-06-24T17:58:26;25.10;99.90
36790;DHT22;22740;52.182;8.780;2023-06-24T18:04:28;25.20;99.90
36790;DHT22;22740;52.182;8.780;2023-06-24T18:10:30;25.70;99.90
36790;DHT22;22740;52.182;8.780;2023-06-24T18:16:32;26.10;99.90
36790;DHT22;22740;52.182;8.780;2023-06-24T18:22:35;25.60;99.90
36790;DHT22;22740;52.182;8.780;2023-06-24T18:28:37;25.10;99.90
36790;DHT22;22740;52.182;8.780;2023-06-24T18:34:38;25.00;99.90
36790;DHT22;22740;52.182;8.780;2023-06-24T18:40:40;24.80;99.90
36790;DHT22;22740;52.182;8.780;2023-06-24T18:46:43;24.60;99.90
36790;DHT22;22740;52.182;8.780;2023-06-24T18:52:44;24.40;99.90
36790;DHT22;22740;52.182;8.780;2023-06-24T18:58:46;24.30;99.90
36790;DHT22;22740;52.182;8.780;2023-06-24T19:04:49;24.10;99.90
36790;DHT22;22740;52.182;8.780;2023-06-24T19:10:51;23.90;99.90
36790;DHT22;22740;52.182;8.780;2023-06-24T19:16:53;23.60;99.90
36790;DHT22;22740;52.182;8.780;2023-06-24T19:22:55;23.50;99.90
36790;DHT22;22740;52.182;8.780;2023-06-24T19:28:57;23.30;99.90
36790;DHT22;22740;52.182;8.780;2023-06-24T19:34:59;23.30;99.90
36790;DHT22;22740;52.182;8.780;2023-06-24T19:41:01;23.20;99.90
36790;DHT22;22740;52.182;8.780;2023-06-24T19:47:03;23.00;99.90
36790;DHT22;22740;52.182;8.780;2023-06-24T19:53:05;22.80;99.90
36790;DHT22;22740;52.182;8.780;2023-06-24T19:59:08;22.60;99.90
36790;DHT22;22740;52.182;8.780;2023-06-24T20:05:09;22.40;99.90
36790;DHT22;22740;52.182;8.780;2023-06-24T20:11:11;22.20;99.90
36790;DHT22;22740;52.182;8.780;2023-06-24T20:17:13;21.90;99.90
36790;DHT22;22740;52.182;8.780;2023-06-24T20:23:15;21.80;99.90
36790;DHT22;22740;52.182;8.780;2023-06-24T20:29:18;21.90;99.90
36790;DHT22;22740;52.182;8.780;2023-06-24T20:35:19;21.80;99.90
36790;DHT22;22740;52.182;8.780;2023-06-24T20:41:23;21.70;99.90
36790;DHT22;22740;52.182;8.780;2023-06-24T20:47:25;21.50;99.90
36790;DHT22;22740;52.182;8.780;2023-06-24T20:53:27;21.40;99.90
36790;DHT22;22740;52.182;8.780;2023-06-24T20:59:28;21.40;99.90
36790;DHT22;22740;52.182;8.780;2023-06-24T21:05:30;21.40;99.90
36790;DHT22;22740;52.182;8.780;2023-06-24T21:11:33;21.30;99.90
36790;DHT22;22740;52.182;8.780;2023-06-24T21:17:35;21.20;99.90
36790;DHT22;22740;52.182;8.780;2023-06-24T21:23:37;21.20;99.90
36790;DHT22;22740;52.182;8.780;2023-06-24T21:29:39;21.20;99.90
36790;DHT22;22740;52.182;8.780;2023-06-24T21:35:41;21.20;99.90
36790;DHT22;22740;52.182;8.780;2023-06-24T21:42:01;21.00;99.90
36790;DHT22;22740;52.182;8.780;2023-06-24T21:48:03;20.90;99.90
36790;DHT22;22740;52.182;8.780;2023-06-24T21:54:06;21.00;99.90
36790;DHT22;22740;52.182;8.780;2023-06-24T22:00:08;21.00;99.90
36790;DHT22;22740;52.182;8.780;2023-06-24T22:06:18;21.00;99.90
36790;DHT22;22740;52.182;8.780;2023-06-24T22:12:20;20.90;99.90
36790;DHT22;22740;52.182;8.780;2023-06-24T22:18:22;20.80;99.90
36790;DHT22;22740;52.182;8.780;2023-06-24T22:24:24;20.70;99.90
36790;DHT22;22740;52.182;8.780;2023-06-24T22:30:26;20.70;99.90
36790;DHT22;22740;52.182;8.780;2023-06-24T22:36:28;20.60;99.90
36790;DHT22;22740;52.182;8.780;2023-06-24T22:42:30;20.50;99.90
36790;DHT22;22740;52.182;8.780;2023-06-24T22:48:32;20.40;99.90
36790;DHT22;22740;52.182;8.780;2023-06-24T22:54:34;20.40;99.90
36790;DHT22;22740;52.182;8.780;2023-06-24T23:00:35;20.40;99.90
36790;DHT22;22740;52.182;8.780;2023-06-24T23:06:38;20.40;99.90
36790;DHT22;22740;52.182;8.780;2023-06-24T23:12:41;20.40;99.90
36790;DHT22;22740;52.182;8.780;2023-06-24T23:18:45;20.40;99.90
36790;DHT22;22740;52.182;8.780;2023-06-24T23:24:47;20.30;99.90
36790;DHT22;22740;52.182;8.780;2023-06-24T23:30:54;20.30;99.90
36790;DHT22;22740;52.182;8.780;2023-06-24T23:36:56;20.20;99.90
36790;DHT22;22740;52.182;8.780;2023-06-24T23:42:58;20.10;99.90
36790;DHT22;22740;52.182;8.780;2023-06-24T23:49:00;20.00;99.90
36790;DHT22;22740;52.182;8.780;2023-06-24T23:55:02;19.90;99.90
